createdAt,value
2022-08-28T00:00:41.087Z,80.39
2022-08-28T00:01:41.073Z,80.49
2022-08-28T00:02:41.143Z,80.29
2022-08-28T00:03:41.073Z,80.08
2022-08-28T00:04:41.100Z,80.90
2022-08-28T00:05:41.040Z,80.79
2022-08-28T00:06:41.020Z,80.39
2022-08-28T00:07:45.521Z,80.79
2022-08-28T00:08:42.019Z,82.01
2022-08-28T00:09:40.985Z,81.10
2022-08-28T00:10:40.978Z,80.49
2022-08-28T00:11:40.962Z,81.80
2022-08-28T00:12:40.951Z,81.50
2022-08-28T00:13:40.961Z,80.90
2022-08-28T00:14:40.932Z,81.44
2022-08-28T00:15:40.969Z,81.30
2022-08-28T00:16:40.907Z,81.30
2022-08-28T00:17:40.894Z,81.50
2022-08-28T00:18:41.133Z,81.50
2022-08-28T00:19:40.871Z,81.70
2022-08-28T00:20:40.860Z,81.80
2022-08-28T00:21:40.848Z,81.60
2022-08-28T00:22:41.152Z,81.80
2022-08-28T00:23:43.133Z,81.54
2022-08-28T00:24:40.817Z,81.30
2022-08-28T00:25:40.805Z,81.34
2022-08-28T00:26:40.817Z,81.54
2022-08-28T00:27:40.784Z,81.84
2022-08-28T00:28:40.773Z,81.64
2022-08-28T00:29:40.783Z,81.74
2022-08-28T00:30:40.768Z,81.54
2022-08-28T00:31:40.805Z,81.84
2022-08-28T00:32:40.728Z,82.04
2022-08-28T00:33:40.745Z,81.84
2022-08-28T00:34:40.731Z,81.64
2022-08-28T00:35:41.086Z,81.54
2022-08-28T00:36:40.682Z,81.64
2022-08-28T00:37:40.672Z,81.94
2022-08-28T00:38:40.678Z,81.84
2022-08-28T00:39:40.650Z,82.04
2022-08-28T00:40:40.706Z,81.34
2022-08-28T00:41:41.217Z,81.64
2022-08-28T00:42:40.617Z,82.24
2022-08-28T00:43:40.600Z,81.54
2022-08-28T00:44:40.593Z,82.24
2022-08-28T00:45:40.602Z,81.74
2022-08-28T00:46:40.624Z,81.64
2022-08-28T00:47:40.559Z,81.44
2022-08-28T00:48:40.576Z,82.04
2022-08-28T00:49:40.535Z,81.74
2022-08-28T00:50:40.525Z,81.74
2022-08-28T00:51:40.513Z,81.84
2022-08-28T00:52:40.502Z,82.55
2022-08-28T00:53:40.489Z,82.04
2022-08-28T00:54:40.502Z,81.84
2022-08-28T00:55:40.473Z,82.55
2022-08-28T00:56:40.464Z,81.94
2022-08-28T00:57:40.509Z,82.35
2022-08-28T00:58:40.434Z,81.84
2022-08-28T00:59:40.444Z,82.55
2022-08-28T01:00:40.417Z,83.26
2022-08-28T01:01:40.416Z,82.65
2022-08-28T01:02:40.423Z,82.65
2022-08-28T01:03:40.413Z,82.35
2022-08-28T01:04:40.384Z,82.95
2022-08-28T01:05:40.378Z,81.94
2022-08-28T01:06:40.341Z,82.75
2022-08-28T01:07:40.338Z,82.65
2022-08-28T01:08:40.344Z,82.35
2022-08-28T01:09:40.310Z,82.55
2022-08-28T01:10:40.300Z,82.65
2022-08-28T01:11:40.309Z,82.65
2022-08-28T01:12:40.286Z,82.55
2022-08-28T01:13:40.270Z,82.24
2022-08-28T01:14:40.262Z,82.55
2022-08-28T01:15:40.275Z,82.24
2022-08-28T01:16:40.279Z,82.14
2022-08-28T01:17:40.222Z,82.85
2022-08-28T01:18:40.209Z,82.35
2022-08-28T01:19:40.197Z,82.85
2022-08-28T01:20:40.191Z,82.04
2022-08-28T01:21:40.376Z,82.55
2022-08-28T01:22:40.371Z,82.55
2022-08-28T01:23:40.156Z,81.74
2022-08-28T01:24:40.148Z,83.05
2022-08-28T01:25:40.135Z,82.65
2022-08-28T01:26:40.118Z,82.45
2022-08-28T01:27:40.403Z,82.85
2022-08-28T01:28:40.129Z,82.75
2022-08-28T01:29:40.094Z,82.24
2022-08-28T01:30:40.075Z,82.35
2022-08-28T01:31:40.153Z,82.14
2022-08-28T01:32:40.077Z,82.85
2022-08-28T01:33:42.350Z,82.24
2022-08-28T01:34:40.029Z,82.55
2022-08-28T01:35:40.025Z,83.05
2022-08-28T01:36:40.005Z,83.15
2022-08-28T01:37:40.016Z,82.85
2022-08-28T01:38:39.984Z,82.85
2022-08-28T01:39:39.973Z,83.05
2022-08-28T01:40:40.081Z,82.85
2022-08-28T01:41:39.975Z,82.85
2022-08-28T01:42:39.939Z,82.85
2022-08-28T01:43:39.952Z,83.26
2022-08-28T01:44:39.917Z,82.95
2022-08-28T01:45:39.909Z,82.95
2022-08-28T01:46:39.973Z,82.95
2022-08-28T01:47:39.891Z,82.65
2022-08-28T01:48:39.909Z,83.05
2022-08-28T01:49:39.878Z,82.65
2022-08-28T01:50:39.848Z,82.75
2022-08-28T01:51:39.838Z,83.15
2022-08-28T01:52:39.826Z,82.85
2022-08-28T01:53:39.843Z,82.75
2022-08-28T01:54:39.803Z,82.65
2022-08-28T01:55:39.792Z,82.24
2022-08-28T01:56:39.785Z,82.75
2022-08-28T01:57:39.773Z,83.05
2022-08-28T01:58:39.780Z,83.26
2022-08-28T01:59:39.754Z,83.26
2022-08-28T02:00:39.741Z,82.95
2022-08-28T02:01:39.769Z,83.15
2022-08-28T02:02:39.721Z,83.46
2022-08-28T02:03:39.727Z,83.15
2022-08-28T02:04:39.720Z,83.36
2022-08-28T02:05:39.679Z,83.46
2022-08-28T02:06:39.668Z,83.15
2022-08-28T02:07:39.663Z,83.26
2022-08-28T02:08:39.665Z,83.36
2022-08-28T02:09:39.636Z,83.05
2022-08-28T02:10:39.627Z,83.26
2022-08-28T02:11:39.635Z,83.66
2022-08-28T02:12:39.599Z,83.86
2022-08-28T02:13:39.624Z,83.66
2022-08-28T02:14:39.584Z,84.06
2022-08-28T02:15:39.603Z,83.86
2022-08-28T02:16:39.564Z,83.86
2022-08-28T02:17:39.549Z,84.06
2022-08-28T02:18:39.535Z,83.56
2022-08-28T02:19:39.547Z,83.36
2022-08-28T02:20:39.529Z,83.46
2022-08-28T02:21:39.499Z,83.66
2022-08-28T02:22:39.487Z,84.11
2022-08-28T02:23:39.509Z,84.00
2022-08-28T02:24:39.490Z,83.96
2022-08-28T02:25:39.457Z,84.17
2022-08-28T02:26:39.442Z,83.90
2022-08-28T02:27:39.436Z,84.06
2022-08-28T02:28:39.420Z,83.70
2022-08-28T02:29:39.434Z,83.46
2022-08-28T02:30:39.455Z,83.80
2022-08-28T02:31:39.390Z,84.11
2022-08-28T02:32:39.391Z,83.80
2022-08-28T02:33:39.390Z,83.80
2022-08-28T02:34:39.353Z,83.76
2022-08-28T02:35:39.344Z,83.80
2022-08-28T02:36:39.331Z,84.41
2022-08-28T02:37:39.319Z,84.41
2022-08-28T02:38:39.313Z,84.31
2022-08-28T02:39:39.338Z,84.00
2022-08-28T02:40:39.371Z,84.41
2022-08-28T02:41:39.315Z,84.20
2022-08-28T02:42:39.262Z,84.37
2022-08-28T02:43:39.251Z,84.20
2022-08-28T02:44:39.342Z,85.02
2022-08-28T02:45:39.255Z,85.11
2022-08-28T02:46:39.254Z,84.51
2022-08-28T02:47:39.213Z,85.05
2022-08-28T02:48:39.197Z,85.16
2022-08-28T02:49:39.207Z,84.95
2022-08-28T02:50:39.170Z,85.05
2022-08-28T02:51:39.162Z,84.85
2022-08-28T02:52:40.425Z,85.16
2022-08-28T02:53:39.139Z,85.30
2022-08-28T02:54:39.147Z,85.60
2022-08-28T02:55:39.133Z,85.90
2022-08-28T02:56:39.185Z,85.80
2022-08-28T02:57:39.102Z,85.70
2022-08-28T02:58:39.085Z,85.90
2022-08-28T02:59:39.074Z,85.90
2022-08-28T03:00:39.081Z,86.65
2022-08-28T03:01:39.077Z,86.25
2022-08-28T03:02:39.082Z,86.96
2022-08-28T03:03:39.025Z,86.45
2022-08-28T03:04:39.015Z,86.76
2022-08-28T03:05:39.024Z,86.55
2022-08-28T03:06:39.012Z,86.45
2022-08-28T03:07:38.985Z,86.85
2022-08-28T03:08:38.968Z,86.96
2022-08-28T03:09:38.957Z,87.46
2022-08-28T03:10:38.967Z,87.30
2022-08-28T03:11:38.935Z,87.30
2022-08-28T03:12:38.924Z,87.30
2022-08-28T03:13:38.913Z,87.40
2022-08-28T03:14:38.903Z,87.60
2022-08-28T03:15:38.925Z,87.20
2022-08-28T03:16:38.955Z,87.81
2022-08-28T03:17:38.874Z,87.81
2022-08-28T03:18:38.856Z,87.71
2022-08-28T03:19:38.847Z,87.71
2022-08-28T03:20:38.874Z,87.45
2022-08-28T03:21:38.825Z,88.62
2022-08-28T03:22:38.818Z,88.11
2022-08-28T03:23:38.801Z,87.71
2022-08-28T03:24:38.793Z,87.40
2022-08-28T03:25:38.802Z,87.30
2022-08-28T03:26:38.765Z,87.95
2022-08-28T03:27:38.758Z,88.56
2022-08-28T03:28:38.743Z,88.35
2022-08-28T03:29:38.744Z,88.35
2022-08-28T03:30:38.798Z,88.35
2022-08-28T03:31:38.960Z,88.56
2022-08-28T03:32:38.697Z,88.35
2022-08-28T03:33:41.945Z,88.05
2022-08-28T03:34:38.675Z,88.46
2022-08-28T03:35:38.669Z,88.15
2022-08-28T03:36:38.676Z,88.56
2022-08-28T03:37:38.669Z,88.76
2022-08-28T03:38:38.636Z,88.46
2022-08-28T03:39:38.627Z,88.96
2022-08-28T03:40:38.647Z,88.60
2022-08-28T03:41:38.669Z,88.80
2022-08-28T03:42:38.584Z,88.90
2022-08-28T03:43:38.574Z,89.51
2022-08-28T03:44:38.564Z,89.37
2022-08-28T03:45:38.621Z,89.41
2022-08-28T03:46:38.579Z,89.11
2022-08-28T03:47:38.552Z,88.86
2022-08-28T03:48:38.537Z,89.41
2022-08-28T03:49:38.510Z,89.41
2022-08-28T03:50:38.494Z,89.92
2022-08-28T03:51:38.512Z,89.61
2022-08-28T03:52:38.520Z,89.76
2022-08-28T03:53:38.467Z,89.81
2022-08-28T03:54:38.473Z,89.92
2022-08-28T03:55:38.440Z,89.86
2022-08-28T03:56:38.428Z,89.81
2022-08-28T03:57:38.419Z,89.86
2022-08-28T03:58:38.407Z,90.02
2022-08-28T03:59:38.394Z,90.06
2022-08-28T04:00:38.400Z,90.36
2022-08-28T04:01:38.465Z,90.32
2022-08-28T04:02:38.376Z,90.57
2022-08-28T04:03:38.408Z,90.97
2022-08-28T04:04:38.334Z,91.17
2022-08-28T04:05:38.348Z,91.38
2022-08-28T04:06:38.318Z,91.17
2022-08-28T04:07:38.326Z,90.97
2022-08-28T04:08:38.347Z,90.71
2022-08-28T04:09:38.280Z,91.02
2022-08-28T04:10:38.267Z,90.81
2022-08-28T04:11:38.261Z,90.81
2022-08-28T04:12:38.266Z,91.63
2022-08-28T04:13:38.254Z,91.83
2022-08-28T04:14:38.226Z,91.93
2022-08-28T04:15:38.214Z,91.32
2022-08-28T04:16:38.207Z,91.52
2022-08-28T04:17:38.192Z,91.42
2022-08-28T04:18:38.202Z,91.42
2022-08-28T04:19:38.198Z,91.36
2022-08-28T04:20:38.156Z,91.52
2022-08-28T04:21:38.146Z,91.47
2022-08-28T04:22:38.129Z,91.42
2022-08-28T04:23:38.121Z,91.77
2022-08-28T04:24:38.127Z,91.77
2022-08-28T04:25:38.101Z,91.73
2022-08-28T04:26:38.089Z,91.67
2022-08-28T04:27:38.084Z,91.06
2022-08-28T04:28:38.062Z,91.87
2022-08-28T04:29:38.073Z,91.56
2022-08-28T04:30:38.039Z,91.97
2022-08-28T04:31:38.081Z,92.28
2022-08-28T04:32:38.041Z,92.28
2022-08-28T04:33:38.006Z,92.07
2022-08-28T04:34:38.020Z,92.28
2022-08-28T04:35:37.984Z,92.58
2022-08-28T04:36:37.979Z,92.79
2022-08-28T04:37:37.961Z,92.79
2022-08-28T04:38:42.989Z,92.48
2022-08-28T04:39:38.960Z,92.48
2022-08-28T04:40:37.960Z,92.48
2022-08-28T04:41:37.917Z,93.29
2022-08-28T04:42:37.916Z,93.09
2022-08-28T04:43:37.914Z,92.93
2022-08-28T04:44:37.881Z,92.79
2022-08-28T04:45:37.922Z,92.93
2022-08-28T04:46:37.880Z,92.72
2022-08-28T04:47:37.895Z,92.93
2022-08-28T04:48:37.870Z,92.93
2022-08-28T04:49:37.831Z,92.63
2022-08-28T04:50:37.844Z,93.33
2022-08-28T04:51:41.890Z,92.72
2022-08-28T04:52:37.792Z,93.54
2022-08-28T04:53:37.781Z,93.33
2022-08-28T04:54:37.797Z,93.54
2022-08-28T04:55:53.603Z,93.44
2022-08-28T04:56:38.743Z,93.64
2022-08-28T04:57:37.735Z,93.33
2022-08-28T04:58:37.725Z,93.84
2022-08-28T04:59:37.733Z,93.95
2022-08-28T05:00:38.521Z,93.64
2022-08-28T05:01:37.689Z,93.64
2022-08-28T05:02:37.690Z,93.74
2022-08-28T05:03:37.671Z,93.74
2022-08-28T05:04:37.654Z,93.89
2022-08-28T05:05:37.663Z,93.79
2022-08-28T05:06:37.659Z,93.54
2022-08-28T05:07:37.621Z,93.54
2022-08-28T05:08:37.609Z,93.74
2022-08-28T05:09:37.598Z,93.84
2022-08-28T05:10:37.611Z,93.64
2022-08-28T05:11:37.575Z,93.80
2022-08-28T05:12:37.563Z,93.80
2022-08-28T05:13:37.552Z,93.95
2022-08-28T05:14:37.571Z,93.84
2022-08-28T05:15:37.534Z,92.99
2022-08-28T05:16:37.566Z,93.29
2022-08-28T05:17:37.506Z,92.89
2022-08-28T05:18:37.516Z,92.99
2022-08-28T05:19:37.484Z,92.58
2022-08-28T05:20:37.472Z,92.79
2022-08-28T05:21:37.479Z,92.44
2022-08-28T05:22:37.451Z,92.94
2022-08-28T05:23:37.460Z,93.05
2022-08-28T05:24:37.428Z,92.74
2022-08-28T05:25:37.419Z,92.84
2022-08-28T05:26:38.782Z,92.70
2022-08-28T05:27:37.394Z,92.60
2022-08-28T05:28:37.408Z,92.80
2022-08-28T05:29:37.392Z,92.55
2022-08-28T05:30:37.362Z,92.45
2022-08-28T05:31:37.383Z,92.70
2022-08-28T05:32:37.339Z,92.45
2022-08-28T05:33:37.326Z,91.94
2022-08-28T05:34:37.333Z,92.35
2022-08-28T05:35:37.301Z,91.13
2022-08-28T05:36:37.314Z,91.44
2022-08-28T05:37:37.279Z,91.44
2022-08-28T05:38:37.269Z,90.83
2022-08-28T05:39:37.256Z,91.13
2022-08-28T05:40:37.296Z,90.83
2022-08-28T05:41:37.258Z,90.93
2022-08-28T05:42:39.083Z,90.62
2022-08-28T05:43:37.210Z,90.83
2022-08-28T05:44:37.381Z,90.83
2022-08-28T05:45:37.300Z,90.38
2022-08-28T05:46:37.397Z,90.69
2022-08-28T05:47:37.167Z,90.38
2022-08-28T05:48:39.070Z,90.48
2022-08-28T05:49:37.163Z,89.57
2022-08-28T05:50:37.132Z,89.57
2022-08-28T05:51:37.125Z,90.08
2022-08-28T05:52:37.131Z,89.02
2022-08-28T05:53:37.098Z,89.06
2022-08-28T05:54:37.422Z,89.02
2022-08-28T05:55:37.077Z,88.82
2022-08-28T05:56:37.065Z,89.63
2022-08-28T05:57:37.059Z,89.02
2022-08-28T05:58:37.063Z,88.42
2022-08-28T05:59:37.035Z,88.72
2022-08-28T06:00:37.025Z,89.12
2022-08-28T06:01:37.119Z,88.72
2022-08-28T06:02:36.997Z,88.27
2022-08-28T06:03:37.067Z,88.68
2022-08-28T06:04:37.083Z,87.93
2022-08-28T06:05:36.972Z,87.73
2022-08-28T06:06:36.972Z,87.22
2022-08-28T06:07:36.957Z,87.62
2022-08-28T06:08:36.935Z,87.12
2022-08-28T06:09:36.940Z,86.31
2022-08-28T06:10:36.915Z,86.31
2022-08-28T06:11:36.896Z,86.31
2022-08-28T06:12:36.892Z,86.07
2022-08-28T06:13:36.895Z,86.31
2022-08-28T06:14:36.895Z,86.37
2022-08-28T06:15:36.852Z,86.27
2022-08-28T06:16:36.884Z,85.56
2022-08-28T06:17:36.854Z,85.66
2022-08-28T06:18:36.816Z,85.86
2022-08-28T06:19:40.731Z,86.16
2022-08-28T06:20:36.798Z,86.22
2022-08-28T06:21:36.789Z,86.43
2022-08-28T06:22:36.772Z,85.42
2022-08-28T06:23:36.762Z,84.91
2022-08-28T06:24:36.779Z,85.22
2022-08-28T06:25:36.746Z,84.61
2022-08-28T06:26:36.755Z,84.11
2022-08-28T06:27:36.741Z,84.11
2022-08-28T06:28:36.720Z,85.02
2022-08-28T06:29:36.690Z,85.28
2022-08-28T06:30:36.689Z,83.76
2022-08-28T06:31:36.756Z,83.15
2022-08-28T06:32:36.665Z,83.66
2022-08-28T06:33:36.666Z,83.66
2022-08-28T06:34:36.673Z,82.99
2022-08-28T06:35:36.630Z,83.60
2022-08-28T06:36:36.617Z,84.71
2022-08-28T06:37:36.600Z,84.17
2022-08-28T06:38:36.601Z,83.96
2022-08-28T06:39:36.607Z,84.27
2022-08-28T06:40:36.671Z,83.82
2022-08-28T06:41:36.633Z,83.72
2022-08-28T06:42:36.567Z,84.03
2022-08-28T06:43:36.535Z,83.22
2022-08-28T06:44:36.555Z,82.61
2022-08-28T06:45:36.587Z,82.98
2022-08-28T06:46:36.630Z,82.73
2022-08-28T06:47:36.497Z,80.92
2022-08-28T06:48:36.492Z,80.05
2022-08-28T06:49:36.489Z,79.94
2022-08-28T06:50:36.456Z,79.88
2022-08-28T06:51:36.447Z,80.15
2022-08-28T06:52:36.435Z,81.05
2022-08-28T06:53:36.420Z,81.56
2022-08-28T06:54:36.437Z,81.05
2022-08-28T06:55:36.396Z,81.46
2022-08-28T06:56:36.388Z,79.74
2022-08-28T06:57:36.374Z,80.45
2022-08-28T06:58:36.435Z,80.05
2022-08-28T06:59:36.457Z,80.55
2022-08-28T07:00:36.345Z,80.45
2022-08-28T07:01:36.496Z,80.45
2022-08-28T07:02:36.388Z,79.91
2022-08-28T07:03:36.306Z,80.15
2022-08-28T07:04:37.316Z,79.61
2022-08-28T07:05:36.283Z,79.81
2022-08-28T07:06:36.273Z,78.90
2022-08-28T07:07:36.262Z,78.50
2022-08-28T07:08:36.253Z,78.59
2022-08-28T07:09:36.261Z,78.84
2022-08-28T07:10:36.228Z,79.00
2022-08-28T07:11:36.216Z,78.06
2022-08-28T07:12:36.208Z,77.75
2022-08-28T07:13:36.193Z,77.66
2022-08-28T07:14:36.206Z,77.82
2022-08-28T07:15:36.218Z,77.62
2022-08-28T07:16:37.176Z,76.91
2022-08-28T07:17:36.158Z,77.04
2022-08-28T07:18:36.137Z,76.75
2022-08-28T07:19:36.126Z,76.84
2022-08-28T07:20:36.138Z,77.72
2022-08-28T07:21:38.808Z,77.58
2022-08-28T07:22:36.094Z,76.34
2022-08-28T07:23:36.083Z,74.93
2022-08-28T07:24:36.076Z,75.13
2022-08-28T07:25:36.080Z,74.42
2022-08-28T07:26:36.047Z,74.82
2022-08-28T07:27:36.035Z,75.36
2022-08-28T07:28:36.027Z,74.82
2022-08-28T07:29:36.011Z,75.02
2022-08-28T07:30:36.021Z,74.73
2022-08-28T07:31:36.068Z,75.76
2022-08-28T07:32:35.980Z,75.13
2022-08-28T07:33:35.974Z,72.91
2022-08-28T07:34:35.982Z,73.08
2022-08-28T07:35:35.968Z,71.63
2022-08-28T07:36:35.956Z,70.39
2022-08-28T07:37:35.952Z,69.96
2022-08-28T07:38:35.911Z,70.09
2022-08-28T07:39:35.912Z,68.88
2022-08-28T07:40:35.964Z,68.55
2022-08-28T07:41:35.896Z,68.45
2022-08-28T07:42:35.912Z,68.48
2022-08-28T07:43:35.853Z,68.28
2022-08-28T07:44:35.844Z,69.45
2022-08-28T07:45:35.945Z,69.85
2022-08-28T07:46:35.846Z,69.65
2022-08-28T07:47:35.809Z,69.56
2022-08-28T07:48:35.803Z,69.32
2022-08-28T07:49:35.799Z,69.18
2022-08-28T07:50:35.798Z,68.18
2022-08-28T07:51:35.769Z,69.52
2022-08-28T07:52:35.754Z,69.35
2022-08-28T07:53:36.665Z,69.99
2022-08-28T07:54:35.751Z,70.46
2022-08-28T07:55:35.739Z,69.85
2022-08-28T07:56:35.719Z,70.19
2022-08-28T07:57:35.714Z,70.39
2022-08-28T07:58:39.202Z,70.70
2022-08-28T07:59:37.008Z,71.10
2022-08-28T08:00:35.668Z,70.62
2022-08-28T08:01:35.681Z,70.79
2022-08-28T08:02:35.645Z,71.00
2022-08-28T08:03:35.901Z,70.50
2022-08-28T08:04:35.641Z,70.56
2022-08-28T08:05:35.607Z,70.06
2022-08-28T08:06:35.596Z,70.12
2022-08-28T08:07:35.608Z,69.49
2022-08-28T08:08:35.579Z,69.09
2022-08-28T08:09:35.571Z,69.09
2022-08-28T08:10:35.556Z,69.59
2022-08-28T08:11:35.565Z,69.49
2022-08-28T08:12:37.519Z,69.52
2022-08-28T08:13:35.538Z,70.19
2022-08-28T08:14:35.740Z,70.79
2022-08-28T08:15:35.547Z,70.79
2022-08-28T08:16:35.689Z,70.70
2022-08-28T08:17:35.616Z,70.06
2022-08-28T08:18:35.488Z,70.36
2022-08-28T08:19:35.739Z,70.06
2022-08-28T08:20:35.467Z,69.25
2022-08-28T08:21:35.430Z,69.09
2022-08-28T08:22:35.502Z,69.62
2022-08-28T08:23:35.486Z,69.92
2022-08-28T08:24:35.787Z,71.16
2022-08-28T08:25:35.384Z,71.70
2022-08-28T08:26:35.372Z,71.91
2022-08-28T08:27:38.773Z,71.80
2022-08-28T08:28:36.352Z,72.11
2022-08-28T08:29:35.360Z,72.00
2022-08-28T08:30:35.331Z,72.37
2022-08-28T08:31:35.497Z,71.13
2022-08-28T08:32:35.305Z,70.39
2022-08-28T08:33:35.298Z,69.22
2022-08-28T08:34:35.473Z,68.49
2022-08-28T08:35:35.278Z,69.39
2022-08-28T08:36:35.265Z,67.65
2022-08-28T08:37:35.294Z,66.75
2022-08-28T08:38:35.253Z,65.91
2022-08-28T08:39:35.228Z,65.91
2022-08-28T08:40:35.271Z,66.35
2022-08-28T08:41:35.207Z,66.95
2022-08-28T08:42:35.215Z,66.75
2022-08-28T08:43:35.211Z,66.88
2022-08-28T08:44:37.107Z,67.78
2022-08-28T08:45:35.159Z,67.75
2022-08-28T08:46:35.217Z,67.65
2022-08-28T08:47:35.163Z,67.58
2022-08-28T08:48:35.134Z,68.08
2022-08-28T08:49:35.679Z,68.41
2022-08-28T08:50:35.107Z,68.41
2022-08-28T08:51:35.170Z,68.62
2022-08-28T08:52:35.104Z,69.02
2022-08-28T08:53:35.072Z,69.92
2022-08-28T08:54:35.060Z,69.25
2022-08-28T08:55:35.094Z,69.85
2022-08-28T08:56:35.677Z,71.16
2022-08-28T08:57:35.060Z,70.03
2022-08-28T08:58:35.033Z,69.22
2022-08-28T08:59:35.018Z,69.22
2022-08-28T09:00:34.992Z,70.46
2022-08-28T09:01:35.058Z,70.16
2022-08-28T09:02:34.991Z,70.26
2022-08-28T09:03:35.087Z,70.70
2022-08-28T09:04:34.948Z,70.66
2022-08-28T09:05:34.935Z,70.32
2022-08-28T09:06:34.924Z,69.82
2022-08-28T09:07:34.911Z,70.23
2022-08-28T09:08:34.926Z,69.09
2022-08-28T09:09:34.892Z,69.22
2022-08-28T09:10:34.879Z,69.89
2022-08-28T09:11:34.868Z,69.39
2022-08-28T09:12:34.879Z,69.06
2022-08-28T09:13:34.847Z,68.22
2022-08-28T09:14:34.853Z,68.39
2022-08-28T09:15:34.859Z,67.38
2022-08-28T09:16:34.833Z,66.78
2022-08-28T09:17:34.798Z,67.85
2022-08-28T09:18:34.788Z,68.59
2022-08-28T09:19:34.775Z,67.98
2022-08-28T09:20:34.769Z,69.29
2022-08-28T09:21:34.783Z,68.79
2022-08-28T09:22:34.744Z,69.09
2022-08-28T09:23:34.729Z,68.88
2022-08-28T09:24:34.720Z,68.79
2022-08-28T09:25:34.707Z,69.29
2022-08-28T09:26:34.718Z,68.49
2022-08-28T09:27:34.695Z,69.49
2022-08-28T09:28:34.695Z,69.76
2022-08-28T09:29:34.683Z,68.92
2022-08-28T09:30:34.655Z,67.61
2022-08-28T09:31:34.665Z,69.35
2022-08-28T09:32:34.631Z,68.82
2022-08-28T09:33:34.622Z,69.22
2022-08-28T09:34:38.775Z,68.02
2022-08-28T09:35:34.599Z,68.62
2022-08-28T09:36:34.584Z,68.19
2022-08-28T09:37:34.587Z,68.15
2022-08-28T09:38:34.561Z,67.38
2022-08-28T09:39:34.569Z,67.75
2022-08-28T09:40:34.627Z,67.85
2022-08-28T09:41:34.526Z,68.35
2022-08-28T09:42:34.515Z,67.65
2022-08-28T09:43:34.504Z,67.88
2022-08-28T09:44:34.514Z,67.75
2022-08-28T09:45:34.487Z,68.35
2022-08-28T09:46:34.498Z,68.35
2022-08-28T09:47:34.460Z,67.75
2022-08-28T09:48:34.452Z,68.42
2022-08-28T09:49:34.460Z,68.45
2022-08-28T09:50:34.446Z,67.75
2022-08-28T09:51:34.414Z,67.38
2022-08-28T09:52:34.425Z,66.95
2022-08-28T09:53:34.391Z,66.95
2022-08-28T09:54:34.379Z,67.72
2022-08-28T09:55:34.372Z,66.24
2022-08-28T09:56:34.379Z,66.05
2022-08-28T09:57:34.348Z,66.75
2022-08-28T09:58:34.336Z,67.05
2022-08-28T09:59:34.328Z,65.84
2022-08-28T10:00:34.331Z,65.81
2022-08-28T10:01:34.342Z,66.21
2022-08-28T10:02:34.289Z,67.88
2022-08-28T10:03:34.300Z,66.75
2022-08-28T10:04:34.298Z,66.32
2022-08-28T10:05:34.256Z,66.12
2022-08-28T10:06:34.244Z,66.05
2022-08-28T10:07:34.234Z,64.75
2022-08-28T10:08:34.221Z,64.12
2022-08-28T10:09:34.359Z,64.48
2022-08-28T10:10:34.217Z,63.95
2022-08-28T10:11:34.215Z,61.12
2022-08-28T10:12:34.175Z,60.92
2022-08-28T10:13:34.166Z,61.29
2022-08-28T10:14:34.174Z,61.36
2022-08-28T10:15:34.166Z,60.36
2022-08-28T10:16:34.135Z,60.72
2022-08-28T10:17:34.121Z,61.55
2022-08-28T10:18:34.343Z,62.62
2022-08-28T10:19:34.098Z,61.68
2022-08-28T10:20:34.086Z,62.38
2022-08-28T10:21:34.079Z,63.75
2022-08-28T10:22:34.064Z,62.85
2022-08-28T10:23:34.075Z,63.35
2022-08-28T10:24:34.396Z,62.98
2022-08-28T10:25:34.033Z,62.98
2022-08-28T10:26:34.021Z,63.35
2022-08-28T10:27:34.012Z,63.45
2022-08-28T10:28:34.001Z,61.95
2022-08-28T10:29:33.989Z,61.32
2022-08-28T10:30:34.002Z,62.55
2022-08-28T10:31:34.086Z,62.12
2022-08-28T10:32:33.954Z,61.02
2022-08-28T10:33:33.946Z,60.89
2022-08-28T10:34:33.957Z,61.40
2022-08-28T10:35:33.923Z,59.59
2022-08-28T10:36:35.135Z,59.86
2022-08-28T10:37:33.899Z,59.47
2022-08-28T10:38:33.908Z,58.91
2022-08-28T10:39:33.880Z,58.01
2022-08-28T10:40:33.916Z,58.41
2022-08-28T10:41:33.855Z,57.71
2022-08-28T10:42:35.916Z,57.44
2022-08-28T10:43:33.859Z,57.74
2022-08-28T10:44:33.820Z,58.41
2022-08-28T10:45:33.809Z,58.01
2022-08-28T10:46:33.866Z,57.61
2022-08-28T10:47:33.808Z,57.26
2022-08-28T10:48:33.776Z,56.53
2022-08-28T10:49:33.767Z,55.66
2022-08-28T10:50:33.753Z,56.41
2022-08-28T10:51:35.479Z,58.64
2022-08-28T10:52:33.760Z,58.76
2022-08-28T10:53:33.724Z,58.86
2022-08-28T10:54:33.730Z,58.80
2022-08-28T10:55:33.700Z,58.99
2022-08-28T10:56:33.689Z,59.32
2022-08-28T10:57:38.684Z,59.95
2022-08-28T10:58:34.699Z,60.05
2022-08-28T10:59:33.655Z,60.35
2022-08-28T11:00:34.641Z,60.65
2022-08-28T11:01:33.702Z,60.65
2022-08-28T11:02:33.699Z,60.85
2022-08-28T11:03:35.060Z,60.82
2022-08-28T11:04:33.594Z,59.55
2022-08-28T11:05:33.588Z,60.25
2022-08-28T11:06:33.573Z,61.15
2022-08-28T11:07:33.585Z,60.38
2022-08-28T11:08:33.553Z,61.78
2022-08-28T11:09:33.542Z,61.38
2022-08-28T11:10:33.550Z,60.55
2022-08-28T11:11:33.545Z,59.95
2022-08-28T11:12:33.512Z,60.75
2022-08-28T11:13:33.499Z,60.32
2022-08-28T11:14:33.509Z,60.89
2022-08-28T11:15:37.071Z,59.17
2022-08-28T11:16:33.546Z,58.37
2022-08-28T11:17:33.451Z,58.37
2022-08-28T11:18:33.439Z,57.37
2022-08-28T11:19:33.450Z,56.77
2022-08-28T11:20:33.417Z,57.14
2022-08-28T11:21:33.406Z,57.64
2022-08-28T11:22:33.412Z,57.91
2022-08-28T11:23:33.383Z,58.78
2022-08-28T11:24:33.391Z,57.58
2022-08-28T11:25:33.367Z,56.36
2022-08-28T11:26:33.348Z,57.46
2022-08-28T11:27:33.359Z,56.33
2022-08-28T11:28:33.328Z,57.13
2022-08-28T11:29:33.317Z,56.53
2022-08-28T11:30:33.413Z,54.94
2022-08-28T11:31:33.377Z,55.11
2022-08-28T11:32:33.461Z,55.01
2022-08-28T11:33:33.273Z,55.68
2022-08-28T11:34:33.265Z,54.81
2022-08-28T11:35:33.278Z,55.48
2022-08-28T11:36:33.246Z,54.28
2022-08-28T11:37:33.229Z,54.49
2022-08-28T11:38:33.220Z,55.61
2022-08-28T11:39:33.208Z,55.01
2022-08-28T11:40:33.313Z,54.21
2022-08-28T11:41:33.213Z,54.44
2022-08-28T11:42:33.173Z,55.16
2022-08-28T11:43:33.164Z,55.19
2022-08-28T11:44:33.172Z,55.69
2022-08-28T11:45:33.142Z,55.79
2022-08-28T11:46:33.274Z,55.71
2022-08-28T11:47:33.123Z,56.11
2022-08-28T11:48:33.106Z,57.01
2022-08-28T11:49:33.096Z,58.58
2022-08-28T11:50:33.086Z,57.91
2022-08-28T11:51:33.078Z,56.51
2022-08-28T11:52:33.086Z,57.11
2022-08-28T11:53:33.055Z,56.61
2022-08-28T11:54:33.041Z,56.91
2022-08-28T11:55:33.032Z,57.51
2022-08-28T11:56:33.019Z,56.54
2022-08-28T11:57:33.033Z,58.06
2022-08-28T11:58:33.016Z,56.24
2022-08-28T11:59:35.481Z,56.41
2022-08-28T12:00:32.974Z,55.71
2022-08-28T12:01:32.967Z,55.21
2022-08-28T12:02:33.021Z,55.62
2022-08-28T12:03:32.941Z,55.11
2022-08-28T12:04:32.962Z,55.11
2022-08-28T12:05:32.920Z,56.09
2022-08-28T12:06:32.907Z,55.79
2022-08-28T12:07:32.916Z,55.69
2022-08-28T12:08:32.908Z,54.36
2022-08-28T12:09:32.875Z,54.59
2022-08-28T12:10:32.865Z,55.39
2022-08-28T12:11:32.853Z,55.09
2022-08-28T12:12:32.840Z,55.09
2022-08-28T12:13:32.850Z,54.69
2022-08-28T12:14:32.818Z,54.36
2022-08-28T12:15:32.811Z,55.76
2022-08-28T12:16:32.796Z,55.19
2022-08-28T12:17:32.791Z,56.11
2022-08-28T12:18:32.797Z,55.71
2022-08-28T12:19:32.765Z,56.88
2022-08-28T12:20:32.753Z,56.11
2022-08-28T12:21:32.743Z,56.41
2022-08-28T12:22:32.732Z,56.29
2022-08-28T12:23:32.723Z,57.28
2022-08-28T12:24:32.727Z,55.69
2022-08-28T12:25:32.701Z,57.18
2022-08-28T12:26:32.691Z,55.29
2022-08-28T12:27:32.677Z,55.88
2022-08-28T12:28:32.668Z,55.99
2022-08-28T12:29:32.737Z,55.29
2022-08-28T12:30:32.699Z,56.46
2022-08-28T12:31:32.638Z,56.66
2022-08-28T12:32:32.621Z,56.48
2022-08-28T12:33:32.612Z,56.79
2022-08-28T12:34:32.619Z,56.41
2022-08-28T12:35:32.588Z,57.41
2022-08-28T12:36:32.664Z,56.51
2022-08-28T12:37:50.960Z,56.31
2022-08-28T12:38:33.553Z,57.24
2022-08-28T12:39:32.563Z,56.91
2022-08-28T12:40:32.616Z,55.02
2022-08-28T12:41:32.522Z,55.02
2022-08-28T12:42:32.518Z,55.02
2022-08-28T12:43:32.499Z,55.91
2022-08-28T12:44:32.515Z,55.32
2022-08-28T12:45:32.475Z,54.52
2022-08-28T12:46:32.505Z,55.24
2022-08-28T12:47:32.451Z,54.94
2022-08-28T12:48:32.439Z,54.54
2022-08-28T12:49:32.429Z,54.54
2022-08-28T12:50:32.438Z,54.84
2022-08-28T12:51:32.408Z,55.02
2022-08-28T12:52:32.392Z,55.02